Stations météo

Publicité
Beg Melen, France (7203): Température de l'air & dewpoint: 19.06.2018 02:00:00 - 25.06.2018 02:00:00 (CEST)Beg Melen, France (7203): Vitesse du vent & gusts: 19.06.2018 02:00:00 - 25.06.2018 02:00:00 (CEST)Beg Melen, France (7203): Direction du vent: 19.06.2018 02:00:00 - 25.06.2018 02:00:00 (CEST)Beg Melen, France (7203): visibility: 19.06.2018 02:00:00 - 25.06.2018 02:00:00 (CEST)Beg Melen, France (7203): Quantités de précipitations: 19.06.2018 02:00:00 - 25.06.2018 02:00:00 (CEST)
Date & Time tt [°C] td [°C] ff [km/h] ff [knt] fx [km/h] fx [knt] dd vv [km] rr [mm]
25.06.2018 02:00:00 - - - - - - - - -
25.06.2018 01:00:00 18,0 11,3 23 13 35 19 NE - 0,0
25.06.2018 00:00:00 18,2 11,5 22 12 37 20 NE - 0,0
24.06.2018 23:00:00 18,9 11,7 28 15 40 21 NE 35 0,0
24.06.2018 22:00:00 20,1 12,8 23 12 44 24 NNE - 0,0
24.06.2018 21:00:00 21,6 11,3 27 15 36 19 NE - 0,0
24.06.2018 20:00:00 21,3 12,4 4 2 14 7 NNE 35 0,0
24.06.2018 19:00:00 21,6 14,0 7 4 14 7 W - 0,0
24.06.2018 18:00:00 22,7 11,7 6 3 16 9 WNW - 0,0
24.06.2018 17:00:00 25,5 9,3 12 6 23 12 ENE 35 0,0
24.06.2018 16:00:00 25,2 9,5 13 7 20 11 ENE - 0,0
24.06.2018 15:00:00 24,4 10,7 12 6 22 12 ENE - 0,0
24.06.2018 14:00:00 23,9 10,2 11 6 23 12 E 35 0,0
24.06.2018 13:00:00 22,9 10,0 14 8 25 14 E - 0,0
24.06.2018 12:00:00 21,9 10,4 11 6 22 12 ENE - 0,0
24.06.2018 11:00:00 20,5 10,6 13 7 22 12 ENE 35 0,0
24.06.2018 10:00:00 19,0 10,5 14 7 25 13 E - 0,0
24.06.2018 09:00:00 17,3 10,2 17 9 29 15 E - 0,0
24.06.2018 08:00:00 15,6 9,9 19 10 30 16 E 25 0,0
24.06.2018 07:00:00 15,0 10,2 17 9 31 17 E - 0,0
24.06.2018 06:00:00 15,3 10,5 18 10 27 14 ENE - 0,0
24.06.2018 05:00:00 15,4 10,6 16 8 26 14 E 25 0,0
24.06.2018 04:00:00 15,2 10,6 13 7 26 14 E - 0,0
24.06.2018 03:00:00 15,7 10,5 16 8 36 20 E - 0,0
24.06.2018 02:00:00 16,4 10,7 20 11 35 19 ENE 25 0,0
24.06.2018 01:00:00 16,6 10,2 19 11 35 19 NE - 0,0
24.06.2018 00:00:00 17,1 10,2 22 12 36 19 NE - 0,0
23.06.2018 23:00:00 17,8 9,9 25 14 41 22 NE 35 0,0
23.06.2018 22:00:00 19,3 9,5 32 18 51 27 NE - 0,0
23.06.2018 21:00:00 21,0 10,8 28 15 41 22 NE - 0,0
23.06.2018 20:00:00 22,6 5,9 22 12 33 18 NE 35 0,0
23.06.2018 19:00:00 23,5 4,4 18 10 29 16 NE - 0,0
23.06.2018 18:00:00 23,9 5,3 14 8 24 13 ENE - 0,0
23.06.2018 17:00:00 23,7 5,1 15 8 27 15 ENE 35 0,0
23.06.2018 16:00:00 23,4 6,6 18 10 33 18 ENE - 0,0
23.06.2018 15:00:00 22,2 7,2 19 10 31 17 ENE - 0,0
23.06.2018 14:00:00 21,9 8,0 19 11 32 17 ENE 35 0,0
23.06.2018 13:00:00 21,7 9,2 12 6 22 12 E - 0,0
23.06.2018 12:00:00 20,9 8,5 10 5 20 11 E - 0,0
23.06.2018 11:00:00 18,8 9,3 13 7 22 12 ENE 35 0,0
23.06.2018 10:00:00 17,6 9,2 15 8 30 16 E - 0,0
23.06.2018 09:00:00 15,8 9,2 17 9 31 17 E - 0,0
23.06.2018 08:00:00 14,1 9,3 19 10 36 19 E 35 0,0
23.06.2018 07:00:00 13,9 9,3 21 11 35 19 E - 0,0
23.06.2018 06:00:00 14,1 9,3 19 11 34 18 ENE - 0,0
23.06.2018 05:00:00 14,3 9,1 20 11 40 21 E 25 0,0
23.06.2018 04:00:00 15,0 9,8 24 13 47 26 ENE - 0,0
23.06.2018 03:00:00 15,1 9,7 28 15 50 27 NE - 0,0
23.06.2018 02:00:00 15,1 9,0 26 14 46 25 NE 30 0,0
23.06.2018 01:00:00 15,2 8,2 29 16 45 25 NE - 0,0
23.06.2018 00:00:00 15,7 8,4 29 16 52 28 NE - 0,0
22.06.2018 23:00:00 16,7 9,1 27 15 49 26 NE 30 0,0
22.06.2018 22:00:00 17,8 10,4 27 15 46 25 NE - 0,0
22.06.2018 21:00:00 19,3 9,8 29 16 41 22 NE - 0,0
22.06.2018 20:00:00 20,2 9,7 22 12 42 23 NE 35 0,0
22.06.2018 19:00:00 20,8 10,0 25 13 42 23 NE - 0,0
22.06.2018 18:00:00 21,4 9,6 23 12 38 20 NE - 0,0
22.06.2018 17:00:00 21,9 6,9 22 12 36 19 ENE 35 0,0
22.06.2018 16:00:00 21,3 5,6 22 12 36 20 ENE - 0,0
22.06.2018 15:00:00 20,8 5,6 24 13 38 21 ENE - 0,0
22.06.2018 14:00:00 20,0 7,0 22 12 39 21 ENE 35 0,0
22.06.2018 13:00:00 19,4 7,5 21 11 39 21 ENE - 0,0
22.06.2018 12:00:00 18,4 5,2 24 13 39 21 ENE - 0,0
22.06.2018 11:00:00 17,2 5,8 19 10 37 20 ENE 35 0,0
22.06.2018 10:00:00 15,8 6,2 22 12 40 22 ENE - 0,0
22.06.2018 09:00:00 14,4 6,5 29 16 44 24 ENE - 0,0
22.06.2018 08:00:00 12,8 7,9 28 15 48 26 ENE 30 0,0
22.06.2018 07:00:00 12,8 8,3 27 14 45 24 ENE - 0,0
22.06.2018 06:00:00 12,4 9,2 30 16 46 25 NE - 0,0
22.06.2018 05:00:00 12,0 9,0 30 16 44 24 NNE 25 0,0
22.06.2018 04:00:00 12,3 8,8 30 16 42 23 NNE - 0,0
22.06.2018 03:00:00 12,7 8,8 31 17 43 23 NNE - 0,0
22.06.2018 02:00:00 12,8 8,3 29 16 49 26 NNE 25 0,0
22.06.2018 01:00:00 13,2 8,1 32 18 48 26 NNE - 0,0
22.06.2018 00:00:00 13,4 7,4 30 16 42 23 NNE - 0,0
21.06.2018 23:00:00 14,1 7,2 32 18 63 34 NNE 25 0,0
21.06.2018 22:00:00 15,3 7,3 45 24 63 34 NNE - 0,0
21.06.2018 21:00:00 16,6 8,5 39 21 61 33 NNE - 0,0
21.06.2018 20:00:00 17,8 7,2 39 21 60 32 NE 25 0,0
21.06.2018 19:00:00 19,8 9,1 39 21 57 31 NNE - 0,0
21.06.2018 18:00:00 19,7 8,7 40 21 61 33 NNE - 0,0
21.06.2018 17:00:00 20,4 9,0 31 17 52 28 NNE 25 0,0
21.06.2018 16:00:00 20,6 7,2 34 18 49 26 NNE - 0,0
21.06.2018 15:00:00 20,7 8,7 37 20 50 27 NNE - 0,0
21.06.2018 14:00:00 19,8 9,1 37 20 56 30 NNE 25 0,0
21.06.2018 13:00:00 18,8 10,4 41 22 61 33 NNE - 0,0
21.06.2018 12:00:00 18,3 10,4 42 23 62 34 NNE - 0,0
21.06.2018 11:00:00 17,5 11,3 39 21 55 30 NNE 35 0,0
21.06.2018 10:00:00 16,2 10,7 40 21 59 32 NNE - 0,0
21.06.2018 09:00:00 16,0 10,7 37 20 61 33 NNE - 0,0
21.06.2018 08:00:00 15,2 11,2 45 25 64 35 NNE 35 0,0
21.06.2018 07:00:00 15,5 12,8 31 17 46 25 NNE - 0,0
21.06.2018 06:00:00 15,4 13,8 31 17 56 31 NNE - 0,0
21.06.2018 05:00:00 15,6 14,1 34 18 50 27 N 25 0,0
21.06.2018 04:00:00 15,3 13,8 28 15 45 24 NNE - 0,0
21.06.2018 03:00:00 15,6 14,1 25 14 43 23 N - 0,0
21.06.2018 02:00:00 16,7 14,5 34 18 57 31 N 25 0,0
21.06.2018 01:00:00 18,7 15,2 22 12 34 18 N - 0,0
21.06.2018 00:00:00 19,9 14,9 24 13 31 17 N - 0,0
20.06.2018 23:00:00 21,1 14,3 26 14 37 20 N 25 0,0
20.06.2018 22:00:00 21,9 16,6 26 14 35 19 N - 0,0
20.06.2018 21:00:00 23,4 16,9 12 6 23 13 W - 0,0
20.06.2018 20:00:00 23,9 17,2 16 9 27 15 W 30 0,0
20.06.2018 19:00:00 23,4 17,4 16 8 29 16 W - 0,0
20.06.2018 18:00:00 23,0 17,7 15 8 24 13 W - 0,0
20.06.2018 17:00:00 23,1 17,8 15 8 23 12 W 30 0,0
20.06.2018 16:00:00 23,6 18,0 13 7 22 12 W - 0,0
20.06.2018 15:00:00 23,2 17,6 12 7 18 10 W - 0,0
20.06.2018 14:00:00 25,0 17,5 4 2 11 6 W 30 0,0
20.06.2018 13:00:00 24,3 17,1 3 1 10 5 N - 0,0
20.06.2018 12:00:00 23,1 16,6 5 3 10 6 NE - 0,0
20.06.2018 11:00:00 22,3 16,8 6 4 13 7 NE 30 0,0
20.06.2018 10:00:00 20,4 16,2 8 5 16 9 NE - 0,0
20.06.2018 09:00:00 18,3 15,5 10 5 21 11 NE - 0,0
20.06.2018 08:00:00 15,9 15,1 14 7 21 12 E 20 0,0
20.06.2018 07:00:00 15,3 14,7 14 8 22 12 NE - 0,0
20.06.2018 06:00:00 15,4 14,8 14 7 23 12 ENE - 0,0
20.06.2018 05:00:00 15,7 15,1 13 7 18 10 ENE 20 0,2
20.06.2018 04:00:00 16,0 15,2 7 4 14 7 NE - 0,0
20.06.2018 03:00:00 16,5 15,7 9 5 12 6 ENE - 0,0
20.06.2018 02:00:00 16,9 16,1 7 4 12 7 ENE 20 0,0
20.06.2018 01:00:00 15,9 15,1 6 3 10 6 NNE - 0,0
20.06.2018 00:00:00 16,2 15,2 9 5 13 7 NW - 0,0
19.06.2018 23:00:00 16,3 15,2 9 5 14 8 NW 20 0,0
19.06.2018 22:00:00 17,3 15,3 10 5 14 8 WNW - 0,0
19.06.2018 21:00:00 19,1 16,0 9 5 16 9 WNW - 0,0
19.06.2018 20:00:00 19,8 15,9 14 7 18 10 WNW 20 0,0
19.06.2018 19:00:00 20,6 15,6 11 6 20 11 W - 0,0
19.06.2018 18:00:00 21,2 15,7 10 6 18 10 W - 0,0
19.06.2018 17:00:00 21,4 15,7 8 5 16 8 W 30 0,0
19.06.2018 16:00:00 20,8 15,6 8 4 17 9 W - 0,0
19.06.2018 15:00:00 19,3 14,8 7 4 15 8 WNW - 0,0
19.06.2018 14:00:00 19,6 15,3 6 3 15 8 E 30 0,0
19.06.2018 13:00:00 18,8 14,9 7 4 14 8 E - 0,0
19.06.2018 12:00:00 17,6 14,7 7 4 14 8 E - 0,0
19.06.2018 11:00:00 16,8 14,8 8 4 16 9 E 18 0,0
19.06.2018 10:00:00 16,2 14,7 8 5 18 10 E - 0,0
19.06.2018 09:00:00 15,9 14,6 13 7 20 11 NE - 0,0
19.06.2018 08:00:00 15,6 14,5 10 5 18 10 NNE 25 0,0
19.06.2018 07:00:00 15,5 14,5 10 5 20 11 N - 0,0
19.06.2018 06:00:00 15,5 14,5 14 8 32 17 N - 0,0
19.06.2018 05:00:00 15,4 14,6 25 13 32 17 N 20 0,0
19.06.2018 04:00:00 15,6 15,0 16 8 40 22 NNW - 0,0
19.06.2018 03:00:00 15,5 15,0 24 13 39 21 NW - 0,0
19.06.2018 02:00:00 15,3 15,0 21 12 36 20 NW 15 0,0

tt = Température de l'air
td = dewpoint
ff = Vitesse du vent
fx = gusts
dd = Direction du vent
vv = visibility
rr = Quantités de précipitations

stations d'obs. à proximité